sensor_id;sensor_type;location;lat;lon;timestamp;pressure;altitude;pressure_sealevel;temperature;humidity
25238;BME280;13185;50.872;5.306;2023-04-26T00:01:00;101624.28;;;3.88;82.93
25238;BME280;13185;50.872;5.306;2023-04-26T00:03:29;101636.78;;;3.83;83.09
25238;BME280;13185;50.872;5.306;2023-04-26T00:05:55;101632.47;;;3.79;83.23
25238;BME280;13185;50.872;5.306;2023-04-26T00:08:20;101627.31;;;3.72;83.24
25238;BME280;13185;50.872;5.306;2023-04-26T00:10:46;101624.78;;;3.68;83.14
25238;BME280;13185;50.872;5.306;2023-04-26T00:13:11;101629.25;;;3.64;83.19
25238;BME280;13185;50.872;5.306;2023-04-26T00:15:37;101630.22;;;3.62;83.23
25238;BME280;13185;50.872;5.306;2023-04-26T00:18:02;101633.03;;;3.56;83.20
25238;BME280;13185;50.872;5.306;2023-04-26T00:20:28;101632.19;;;3.52;83.22
25238;BME280;13185;50.872;5.306;2023-04-26T00:22:54;101628.75;;;3.48;83.41
25238;BME280;13185;50.872;5.306;2023-04-26T00:25:19;101634.16;;;3.45;83.48
25238;BME280;13185;50.872;5.306;2023-04-26T00:27:45;101626.25;;;3.42;83.46
25238;BME280;13185;50.872;5.306;2023-04-26T00:30:11;101620.16;;;3.39;83.52
25238;BME280;13185;50.872;5.306;2023-04-26T00:32:36;101630.84;;;3.36;83.75
25238;BME280;13185;50.872;5.306;2023-04-26T00:35:05;101630.00;;;3.32;83.72
25238;BME280;13185;50.872;5.306;2023-04-26T00:37:31;101629.25;;;3.27;84.12
25238;BME280;13185;50.872;5.306;2023-04-26T00:39:56;101623.16;;;3.24;84.84
25238;BME280;13185;50.872;5.306;2023-04-26T00:42:22;101632.06;;;3.19;85.21
25238;BME280;13185;50.872;5.306;2023-04-26T00:44:47;101626.84;;;3.16;85.35
25238;BME280;13185;50.872;5.306;2023-04-26T00:47:14;101630.38;;;3.17;85.02
25238;BME280;13185;50.872;5.306;2023-04-26T00:49:40;101628.69;;;3.13;84.97
25238;BME280;13185;50.872;5.306;2023-04-26T00:52:06;101629.59;;;3.10;84.91
25238;BME280;13185;50.872;5.306;2023-04-26T00:54:32;101627.03;;;3.07;85.12
25238;BME280;13185;50.872;5.306;2023-04-26T00:56:57;101619.16;;;3.04;85.18
25238;BME280;13185;50.872;5.306;2023-04-26T00:59:23;101628.94;;;3.02;85.28
25238;BME280;13185;50.872;5.306;2023-04-26T01:01:48;101624.53;;;3.00;85.17
25238;BME280;13185;50.872;5.306;2023-04-26T01:04:14;101630.81;;;2.96;85.06
25238;BME280;13185;50.872;5.306;2023-04-26T01:06:40;101630.91;;;2.91;85.05
25238;BME280;13185;50.872;5.306;2023-04-26T01:09:06;101632.88;;;2.83;85.34
25238;BME280;13185;50.872;5.306;2023-04-26T01:11:37;101633.72;;;2.83;85.22
25238;BME280;13185;50.872;5.306;2023-04-26T01:14:04;101627.69;;;2.77;85.57
25238;BME280;13185;50.872;5.306;2023-04-26T01:16:30;101639.19;;;2.76;85.90
25238;BME280;13185;50.872;5.306;2023-04-26T01:18:57;101637.50;;;2.72;86.51
25238;BME280;13185;50.872;5.306;2023-04-26T01:21:23;101626.09;;;2.68;87.12
25238;BME280;13185;50.872;5.306;2023-04-26T01:23:51;101630.53;;;2.66;87.64
25238;BME280;13185;50.872;5.306;2023-04-26T01:26:17;101638.53;;;2.65;87.74
25238;BME280;13185;50.872;5.306;2023-04-26T01:28:43;101635.94;;;2.62;88.03
25238;BME280;13185;50.872;5.306;2023-04-26T01:31:11;101637.75;;;2.58;87.99
25238;BME280;13185;50.872;5.306;2023-04-26T01:33:36;101636.91;;;2.56;88.14
25238;BME280;13185;50.872;5.306;2023-04-26T01:36:06;101640.47;;;2.55;88.07
25238;BME280;13185;50.872;5.306;2023-04-26T01:38:32;101640.50;;;2.53;88.03
25238;BME280;13185;50.872;5.306;2023-04-26T01:40:57;101635.25;;;2.52;87.95
25238;BME280;13185;50.872;5.306;2023-04-26T01:43:23;101641.44;;;2.51;87.81
25238;BME280;13185;50.872;5.306;2023-04-26T01:45:48;101644.13;;;2.48;87.90
25238;BME280;13185;50.872;5.306;2023-04-26T01:48:29;101644.19;;;2.45;88.03
25238;BME280;13185;50.872;5.306;2023-04-26T01:50:55;101638.97;;;2.42;87.95
25238;BME280;13185;50.872;5.306;2023-04-26T01:53:20;101635.44;;;2.40;87.77
25238;BME280;13185;50.872;5.306;2023-04-26T01:55:46;101643.44;;;2.38;87.43
25238;BME280;13185;50.872;5.306;2023-04-26T01:58:11;101638.25;;;2.32;87.24
25238;BME280;13185;50.872;5.306;2023-04-26T02:00:37;101634.78;;;2.28;87.39
25238;BME280;13185;50.872;5.306;2023-04-26T02:03:02;101639.28;;;2.25;87.67
25238;BME280;13185;50.872;5.306;2023-04-26T02:05:28;101644.56;;;2.25;87.61
25238;BME280;13185;50.872;5.306;2023-04-26T02:07:55;101635.78;;;2.23;87.58
25238;BME280;13185;50.872;5.306;2023-04-26T02:10:20;101639.38;;;2.20;87.76
25238;BME280;13185;50.872;5.306;2023-04-26T02:12:46;101637.63;;;2.19;88.20
25238;BME280;13185;50.872;5.306;2023-04-26T02:15:11;101635.88;;;2.17;88.03
25238;BME280;13185;50.872;5.306;2023-04-26T02:17:37;101623.59;;;2.14;87.88
25238;BME280;13185;50.872;5.306;2023-04-26T02:20:03;101628.03;;;2.12;87.79
25238;BME280;13185;50.872;5.306;2023-04-26T02:22:28;101624.59;;;2.09;87.82
25238;BME280;13185;50.872;5.306;2023-04-26T02:24:55;101624.66;;;2.04;87.71
25238;BME280;13185;50.872;5.306;2023-04-26T02:27:26;101622.06;;;2.01;87.69
25238;BME280;13185;50.872;5.306;2023-04-26T02:29:53;101623.88;;;1.99;87.79
25238;BME280;13185;50.872;5.306;2023-04-26T02:32:18;101628.31;;;1.95;87.84
25238;BME280;13185;50.872;5.306;2023-04-26T02:34:44;101623.06;;;1.94;87.89
25238;BME280;13185;50.872;5.306;2023-04-26T02:37:09;101627.56;;;1.89;87.77
25238;BME280;13185;50.872;5.306;2023-04-26T02:39:35;101612.72;;;1.80;87.89
25238;BME280;13185;50.872;5.306;2023-04-26T02:42:01;101623.31;;;1.79;87.85
25238;BME280;13185;50.872;5.306;2023-04-26T02:44:29;101617.16;;;1.77;87.82
25238;BME280;13185;50.872;5.306;2023-04-26T02:46:56;101612.91;;;1.69;88.08
25238;BME280;13185;50.872;5.306;2023-04-26T02:49:21;101610.34;;;1.63;88.37
25238;BME280;13185;50.872;5.306;2023-04-26T02:51:47;101614.78;;;1.61;88.77
25238;BME280;13185;50.872;5.306;2023-04-26T02:54:13;101611.31;;;1.58;89.21
25238;BME280;13185;50.872;5.306;2023-04-26T02:56:38;101607.84;;;1.54;89.04
25238;BME280;13185;50.872;5.306;2023-04-26T02:59:04;101607.03;;;1.49;89.01
25238;BME280;13185;50.872;5.306;2023-04-26T03:01:30;101605.31;;;1.45;89.07
25238;BME280;13185;50.872;5.306;2023-04-26T03:03:55;101602.78;;;1.39;89.63
25238;BME280;13185;50.872;5.306;2023-04-26T03:06:22;101601.09;;;1.36;89.81
25238;BME280;13185;50.872;5.306;2023-04-26T03:08:47;101601.97;;;1.37;89.93
25238;BME280;13185;50.872;5.306;2023-04-26T03:11:13;101605.44;;;1.39;90.15
25238;BME280;13185;50.872;5.306;2023-04-26T03:13:39;101608.03;;;1.42;89.88
25238;BME280;13185;50.872;5.306;2023-04-26T03:16:05;101608.00;;;1.43;89.88
25238;BME280;13185;50.872;5.306;2023-04-26T03:18:31;101605.38;;;1.42;89.88
25238;BME280;13185;50.872;5.306;2023-04-26T03:20:57;101603.66;;;1.39;89.71
25238;BME280;13185;50.872;5.306;2023-04-26T03:23:23;101599.34;;;1.34;89.72
25238;BME280;13185;50.872;5.306;2023-04-26T03:25:50;101605.53;;;1.33;89.86
25238;BME280;13185;50.872;5.306;2023-04-26T03:28:16;101602.84;;;1.36;89.99
25238;BME280;13185;50.872;5.306;2023-04-26T03:30:42;101601.06;;;1.35;89.84
25238;BME280;13185;50.872;5.306;2023-04-26T03:33:07;101596.72;;;1.32;89.92
25238;BME280;13185;50.872;5.306;2023-04-26T03:35:34;101591.44;;;1.32;89.90
25238;BME280;13185;50.872;5.306;2023-04-26T03:38:00;101594.94;;;1.33;89.85
25238;BME280;13185;50.872;5.306;2023-04-26T03:40:25;101591.50;;;1.29;89.79
25238;BME280;13185;50.872;5.306;2023-04-26T03:42:51;101603.81;;;1.29;89.95
25238;BME280;13185;50.872;5.306;2023-04-26T03:45:17;101592.41;;;1.27;89.92
25238;BME280;13185;50.872;5.306;2023-04-26T03:47:43;101599.47;;;1.26;90.12
25238;BME280;13185;50.872;5.306;2023-04-26T03:50:09;101593.31;;;1.26;90.42
25238;BME280;13185;50.872;5.306;2023-04-26T03:52:35;101593.31;;;1.26;90.42
25238;BME280;13185;50.872;5.306;2023-04-26T03:55:01;101594.19;;;1.26;90.31
25238;BME280;13185;50.872;5.306;2023-04-26T03:57:28;101592.44;;;1.25;90.30
25238;BME280;13185;50.872;5.306;2023-04-26T03:59:54;101595.09;;;1.24;90.23
25238;BME280;13185;50.872;5.306;2023-04-26T04:02:19;101587.16;;;1.24;90.31
25238;BME280;13185;50.872;5.306;2023-04-26T04:04:45;101592.47;;;1.22;90.48
25238;BME280;13185;50.872;5.306;2023-04-26T04:07:11;101588.13;;;1.18;91.03
25238;BME280;13185;50.872;5.306;2023-04-26T04:09:36;101593.41;;;1.18;91.26
25238;BME280;13185;50.872;5.306;2023-04-26T04:12:02;101594.31;;;1.17;91.35
25238;BME280;13185;50.872;5.306;2023-04-26T04:14:28;101595.22;;;1.14;91.53
25238;BME280;13185;50.872;5.306;2023-04-26T04:16:54;101592.56;;;1.14;91.72
25238;BME280;13185;50.872;5.306;2023-04-26T04:19:20;101598.78;;;1.12;91.93
25238;BME280;13185;50.872;5.306;2023-04-26T04:21:46;101604.97;;;1.09;91.71
25238;BME280;13185;50.872;5.306;2023-04-26T04:24:11;101611.19;;;1.07;91.66
25238;BME280;13185;50.872;5.306;2023-04-26T04:26:37;101606.75;;;1.09;91.61
25238;BME280;13185;50.872;5.306;2023-04-26T04:29:03;101610.28;;;1.08;91.62
25238;BME280;13185;50.872;5.306;2023-04-26T04:31:35;101614.72;;;1.06;91.86
25238;BME280;13185;50.872;5.306;2023-04-26T04:34:00;101622.69;;;1.04;92.07
25238;BME280;13185;50.872;5.306;2023-04-26T04:36:26;101615.63;;;1.05;92.08
25238;BME280;13185;50.872;5.306;2023-04-26T04:38:52;101621.78;;;1.04;92.07
25238;BME280;13185;50.872;5.306;2023-04-26T04:41:18;101626.19;;;1.05;92.23
25238;BME280;13185;50.872;5.306;2023-04-26T04:43:48;101635.00;;;1.02;91.97
25238;BME280;13185;50.872;5.306;2023-04-26T04:46:13;101636.78;;;1.02;92.01
25238;BME280;13185;50.872;5.306;2023-04-26T04:48:41;101637.66;;;1.02;92.20
25238;BME280;13185;50.872;5.306;2023-04-26T04:51:06;101637.63;;;1.04;92.39
25238;BME280;13185;50.872;5.306;2023-04-26T04:53:33;101631.47;;;1.05;92.80
25238;BME280;13185;50.872;5.306;2023-04-26T04:55:59;101630.56;;;1.07;93.06
25238;BME280;13185;50.872;5.306;2023-04-26T04:58:25;101631.44;;;1.08;92.93
25238;BME280;13185;50.872;5.306;2023-04-26T05:00:51;101628.78;;;1.08;93.03
25238;BME280;13185;50.872;5.306;2023-04-26T05:03:23;101635.84;;;1.07;93.22
25238;BME280;13185;50.872;5.306;2023-04-26T05:05:49;101629.63;;;1.10;93.47
25238;BME280;13185;50.872;5.306;2023-04-26T05:08:15;101624.28;;;1.13;93.56
25238;BME280;13185;50.872;5.306;2023-04-26T05:10:40;101629.53;;;1.18;93.64
25238;BME280;13185;50.872;5.306;2023-04-26T05:13:06;101627.72;;;1.21;93.63
25238;BME280;13185;50.872;5.306;2023-04-26T05:15:33;101631.22;;;1.22;93.71
25238;BME280;13185;50.872;5.306;2023-04-26T05:17:58;101622.38;;;1.24;93.83
25238;BME280;13185;50.872;5.306;2023-04-26T05:20:24;101629.34;;;1.30;93.96
25238;BME280;13185;50.872;5.306;2023-04-26T05:22:50;101628.38;;;1.37;94.20
25238;BME280;13185;50.872;5.306;2023-04-26T05:25:16;101627.38;;;1.44;94.36
25238;BME280;13185;50.872;5.306;2023-04-26T05:27:43;101629.91;;;1.52;94.50
25238;BME280;13185;50.872;5.306;2023-04-26T05:30:39;101634.16;;;1.62;94.62
25238;BME280;13185;50.872;5.306;2023-04-26T05:33:13;101638.47;;;1.69;94.87
25238;BME280;13185;50.872;5.306;2023-04-26T05:35:54;101636.56;;;1.79;94.71
25238;BME280;13185;50.872;5.306;2023-04-26T05:38:23;101644.31;;;1.89;94.82
25238;BME280;13185;50.872;5.306;2023-04-26T05:40:49;101637.91;;;2.02;94.70
25238;BME280;13185;50.872;5.306;2023-04-26T05:43:15;101645.69;;;2.12;94.76
25238;BME280;13185;50.872;5.306;2023-04-26T05:45:51;101647.25;;;2.23;94.53
25238;BME280;13185;50.872;5.306;2023-04-26T05:48:19;101646.94;;;2.39;94.62
25238;BME280;13185;50.872;5.306;2023-04-26T05:50:45;101634.34;;;2.53;94.63
25238;BME280;13185;50.872;5.306;2023-04-26T05:53:11;101640.22;;;2.67;94.18
25238;BME280;13185;50.872;5.306;2023-04-26T05:55:36;101644.44;;;2.77;93.68
25238;BME280;13185;50.872;5.306;2023-04-26T05:58:02;101647.78;;;2.87;93.43
25238;BME280;13185;50.872;5.306;2023-04-26T06:00:29;101634.22;;;3.02;93.16
25238;BME280;13185;50.872;5.306;2023-04-26T06:02:55;101639.06;;;3.22;92.82
25238;BME280;13185;50.872;5.306;2023-04-26T06:05:21;101636.84;;;3.44;92.35
25238;BME280;13185;50.872;5.306;2023-04-26T06:07:47;101641.78;;;3.59;91.72
25238;BME280;13185;50.872;5.306;2023-04-26T06:10:12;101648.66;;;3.68;91.12
25238;BME280;13185;50.872;5.306;2023-04-26T06:12:38;101643.09;;;3.79;90.65
25238;BME280;13185;50.872;5.306;2023-04-26T06:15:06;101649.91;;;3.89;90.15
25238;BME280;13185;50.872;5.306;2023-04-26T06:17:33;101659.34;;;4.00;90.50
25238;BME280;13185;50.872;5.306;2023-04-26T06:19:58;101651.16;;;4.10;89.87
25238;BME280;13185;50.872;5.306;2023-04-26T06:22:24;101652.72;;;4.18;89.50
25238;BME280;13185;50.872;5.306;2023-04-26T06:24:49;101663.97;;;4.28;88.87
25238;BME280;13185;50.872;5.306;2023-04-26T06:27:15;101655.69;;;4.40;88.94
25238;BME280;13185;50.872;5.306;2023-04-26T06:29:44;101663.25;;;4.54;88.42
25238;BME280;13185;50.872;5.306;2023-04-26T06:32:10;101664.63;;;4.69;87.87
25238;BME280;13185;50.872;5.306;2023-04-26T06:34:36;101665.84;;;4.88;87.71
25238;BME280;13185;50.872;5.306;2023-04-26T06:37:04;101673.25;;;5.08;87.35
25238;BME280;13185;50.872;5.306;2023-04-26T06:39:30;101664.91;;;5.21;86.80
25238;BME280;13185;50.872;5.306;2023-04-26T06:41:56;101661.00;;;5.33;86.85
25238;BME280;13185;50.872;5.306;2023-04-26T06:44:28;101659.59;;;5.49;86.75
25238;BME280;13185;50.872;5.306;2023-04-26T06:47:00;101669.91;;;5.60;86.23
25238;BME280;13185;50.872;5.306;2023-04-26T06:49:26;101668.03;;;5.64;85.60
25238;BME280;13185;50.872;5.306;2023-04-26T06:51:51;101673.25;;;5.67;85.10
25238;BME280;13185;50.872;5.306;2023-04-26T06:54:17;101686.56;;;5.67;85.12
25238;BME280;13185;50.872;5.306;2023-04-26T06:56:43;101671.56;;;5.64;85.05
25238;BME280;13185;50.872;5.306;2023-04-26T06:59:09;101681.81;;;5.76;85.70
25238;BME280;13185;50.872;5.306;2023-04-26T07:01:34;101677.94;;;5.87;85.42
25238;BME280;13185;50.872;5.306;2023-04-26T07:04:01;101675.88;;;5.96;85.42
25238;BME280;13185;50.872;5.306;2023-04-26T07:06:28;101675.59;;;6.05;84.77
25238;BME280;13185;50.872;5.306;2023-04-26T07:08:54;101677.38;;;6.05;84.41
25238;BME280;13185;50.872;5.306;2023-04-26T07:11:20;101677.22;;;6.10;84.33
25238;BME280;13185;50.872;5.306;2023-04-26T07:13:46;101678.94;;;6.11;84.23
25238;BME280;13185;50.872;5.306;2023-04-26T07:16:11;101663.94;;;6.08;84.49
25238;BME280;13185;50.872;5.306;2023-04-26T07:18:38;101661.41;;;6.05;84.27
25238;BME280;13185;50.872;5.306;2023-04-26T07:21:04;101656.78;;;6.10;84.92
25238;BME280;13185;50.872;5.306;2023-04-26T07:23:30;101657.50;;;6.15;84.45
25238;BME280;13185;50.872;5.306;2023-04-26T07:25:55;101658.09;;;6.23;84.08
25238;BME280;13185;50.872;5.306;2023-04-26T07:28:21;101652.44;;;6.32;83.85
25238;BME280;13185;50.872;5.306;2023-04-26T07:30:46;101647.56;;;6.45;83.53
25238;BME280;13185;50.872;5.306;2023-04-26T07:33:12;101645.50;;;6.53;82.78
25238;BME280;13185;50.872;5.306;2023-04-26T07:35:37;101649.63;;;6.62;82.71
25238;BME280;13185;50.872;5.306;2023-04-26T07:38:03;101649.47;;;6.66;81.14
25238;BME280;13185;50.872;5.306;2023-04-26T07:40:29;101645.59;;;6.75;81.46
25238;BME280;13185;50.872;5.306;2023-04-26T07:42:55;101648.81;;;6.85;80.99
25238;BME280;13185;50.872;5.306;2023-04-26T07:45:21;101644.19;;;6.90;81.14
25238;BME280;13185;50.872;5.306;2023-04-26T07:47:47;101643.38;;;6.88;79.75
25238;BME280;13185;50.872;5.306;2023-04-26T07:50:12;101645.06;;;6.90;79.56
25238;BME280;13185;50.872;5.306;2023-04-26T07:52:38;101653.75;;;6.95;79.30
25238;BME280;13185;50.872;5.306;2023-04-26T07:55:04;101647.31;;;7.01;79.27
25238;BME280;13185;50.872;5.306;2023-04-26T07:57:30;101655.19;;;7.04;79.58
25238;BME280;13185;50.872;5.306;2023-04-26T07:59:56;101654.84;;;7.13;79.31
25238;BME280;13185;50.872;5.306;2023-04-26T08:02:21;101651.59;;;7.29;79.04
25238;BME280;13185;50.872;5.306;2023-04-26T08:04:48;101661.56;;;7.47;79.34
25238;BME280;13185;50.872;5.306;2023-04-26T08:07:14;101660.25;;;7.57;77.87
25238;BME280;13185;50.872;5.306;2023-04-26T08:09:40;101644.75;;;7.67;78.47
25238;BME280;13185;50.872;5.306;2023-04-26T08:12:06;101652.97;;;7.84;79.27
25238;BME280;13185;50.872;5.306;2023-04-26T08:14:33;101655.50;;;7.87;76.93
25238;BME280;13185;50.872;5.306;2023-04-26T08:17:00;101648.97;;;7.94;76.87
25238;BME280;13185;50.872;5.306;2023-04-26T08:19:26;101643.38;;;8.00;75.68
25238;BME280;13185;50.872;5.306;2023-04-26T08:21:55;101640.44;;;8.06;75.17
25238;BME280;13185;50.872;5.306;2023-04-26T08:24:21;101642.81;;;8.14;74.13
25238;BME280;13185;50.872;5.306;2023-04-26T08:26:46;101636.31;;;8.20;74.05
25238;BME280;13185;50.872;5.306;2023-04-26T08:29:12;101643.72;;;8.35;75.75
25238;BME280;13185;50.872;5.306;2023-04-26T08:31:39;101652.00;;;8.49;74.31
25238;BME280;13185;50.872;5.306;2023-04-26T08:34:04;101641.84;;;8.57;72.77
25238;BME280;13185;50.872;5.306;2023-04-26T08:36:30;101641.97;;;8.75;72.79
25238;BME280;13185;50.872;5.306;2023-04-26T08:39:00;101653.00;;;8.87;70.54
25238;BME280;13185;50.872;5.306;2023-04-26T08:41:26;101646.56;;;8.91;68.45
25238;BME280;13185;50.872;5.306;2023-04-26T08:43:53;101643.81;;;8.93;65.31
25238;BME280;13185;50.872;5.306;2023-04-26T08:46:21;101638.81;;;8.85;65.00
25238;BME280;13185;50.872;5.306;2023-04-26T08:49:00;101642.16;;;8.90;64.21
25238;BME280;13185;50.872;5.306;2023-04-26T08:51:31;101638.47;;;8.93;62.97
25238;BME280;13185;50.872;5.306;2023-04-26T08:53:58;101636.16;;;9.04;62.31
25238;BME280;13185;50.872;5.306;2023-04-26T08:56:25;101638.63;;;9.09;60.65
25238;BME280;13185;50.872;5.306;2023-04-26T08:58:52;101631.06;;;9.18;62.52
25238;BME280;13185;50.872;5.306;2023-04-26T09:01:18;101634.22;;;9.26;61.80
25238;BME280;13185;50.872;5.306;2023-04-26T09:03:45;101629.38;;;9.35;62.09
25238;BME280;13185;50.872;5.306;2023-04-26T09:06:12;101626.06;;;9.48;62.41
25238;BME280;13185;50.872;5.306;2023-04-26T09:08:40;101635.22;;;9.62;60.66
25238;BME280;13185;50.872;5.306;2023-04-26T09:11:06;101634.78;;;9.71;61.96
25238;BME280;13185;50.872;5.306;2023-04-26T09:13:31;101633.75;;;9.73;60.98
25238;BME280;13185;50.872;5.306;2023-04-26T09:15:57;101634.47;;;9.77;60.74
25238;BME280;13185;50.872;5.306;2023-04-26T09:18:23;101630.13;;;9.74;60.22
25238;BME280;13185;50.872;5.306;2023-04-26T09:21:03;101631.78;;;9.77;59.87
25238;BME280;13185;50.872;5.306;2023-04-26T09:23:29;101621.00;;;9.78;60.74
25238;BME280;13185;50.872;5.306;2023-04-26T09:25:56;101628.16;;;9.78;60.72
25238;BME280;13185;50.872;5.306;2023-04-26T09:28:22;101628.31;;;9.75;60.21
25238;BME280;13185;50.872;5.306;2023-04-26T09:30:48;101622.34;;;9.70;60.25
25238;BME280;13185;50.872;5.306;2023-04-26T09:33:14;101626.09;;;9.66;59.67
25238;BME280;13185;50.872;5.306;2023-04-26T09:35:43;101625.56;;;9.76;58.56
25238;BME280;13185;50.872;5.306;2023-04-26T09:38:10;101624.88;;;9.73;56.09
25238;BME280;13185;50.872;5.306;2023-04-26T09:40:39;101628.81;;;9.83;56.97
25238;BME280;13185;50.872;5.306;2023-04-26T09:43:16;101620.38;;;9.73;54.02
25238;BME280;13185;50.872;5.306;2023-04-26T09:50:52;101616.56;;;10.13;55.78
25238;BME280;13185;50.872;5.306;2023-04-26T09:56:08;101615.44;;;10.18;53.73
25238;BME280;13185;50.872;5.306;2023-04-26T09:58:36;101615.69;;;10.13;55.68
25238;BME280;13185;50.872;5.306;2023-04-26T10:01:03;101617.13;;;10.03;54.44
25238;BME280;13185;50.872;5.306;2023-04-26T10:03:29;101611.09;;;9.98;55.90
25238;BME280;13185;50.872;5.306;2023-04-26T10:05:57;101608.34;;;9.99;56.30
25238;BME280;13185;50.872;5.306;2023-04-26T10:08:22;101613.78;;;9.98;56.05
25238;BME280;13185;50.872;5.306;2023-04-26T10:10:48;101608.41;;;9.98;56.97
25238;BME280;13185;50.872;5.306;2023-04-26T10:13:14;101613.94;;;9.95;55.86
25238;BME280;13185;50.872;5.306;2023-04-26T10:15:41;101609.81;;;9.88;55.88
25238;BME280;13185;50.872;5.306;2023-04-26T10:18:07;101608.47;;;9.79;55.40
25238;BME280;13185;50.872;5.306;2023-04-26T10:20:33;101602.25;;;9.78;54.60
25238;BME280;13185;50.872;5.306;2023-04-26T10:23:04;101602.75;;;9.87;55.50
25238;BME280;13185;50.872;5.306;2023-04-26T10:25:39;101597.78;;;9.96;52.50
25238;BME280;13185;50.872;5.306;2023-04-26T10:28:06;101599.75;;;10.10;51.52
25238;BME280;13185;50.872;5.306;2023-04-26T10:30:32;101603.25;;;10.29;49.84
25238;BME280;13185;50.872;5.306;2023-04-26T10:35:27;101596.75;;;10.68;49.99
25238;BME280;13185;50.872;5.306;2023-04-26T10:40:26;101588.13;;;11.27;49.21
25238;BME280;13185;50.872;5.306;2023-04-26T10:45:37;101589.56;;;11.65;47.64
25238;BME280;13185;50.872;5.306;2023-04-26T10:48:29;101575.16;;;11.66;46.00
25238;BME280;13185;50.872;5.306;2023-04-26T10:53:28;101571.28;;;11.71;45.73
25238;BME280;13185;50.872;5.306;2023-04-26T10:55:53;101571.75;;;11.79;45.05
25238;BME280;13185;50.872;5.306;2023-04-26T10:58:30;101565.53;;;11.93;45.13
25238;BME280;13185;50.872;5.306;2023-04-26T11:03:30;101556.84;;;12.18;43.97
25238;BME280;13185;50.872;5.306;2023-04-26T11:05:56;101551.88;;;12.26;43.86
25238;BME280;13185;50.872;5.306;2023-04-26T11:10:56;101553.56;;;12.43;43.97
25238;BME280;13185;50.872;5.306;2023-04-26T11:13:22;101551.94;;;12.40;44.22
25238;BME280;13185;50.872;5.306;2023-04-26T11:15:52;101547.31;;;12.42;43.73
25238;BME280;13185;50.872;5.306;2023-04-26T11:18:19;101545.78;;;12.53;44.02
25238;BME280;13185;50.872;5.306;2023-04-26T11:20:45;101550.88;;;12.71;43.45
25238;BME280;13185;50.872;5.306;2023-04-26T11:23:11;101539.81;;;12.90;43.10
25238;BME280;13185;50.872;5.306;2023-04-26T11:25:39;101541.91;;;13.14;43.15
25238;BME280;13185;50.872;5.306;2023-04-26T11:28:05;101545.94;;;13.21;43.93
25238;BME280;13185;50.872;5.306;2023-04-26T11:30:32;101551.59;;;13.16;43.22
25238;BME280;13185;50.872;5.306;2023-04-26T11:32:58;101541.44;;;13.07;43.22
25238;BME280;13185;50.872;5.306;2023-04-26T11:35:24;101545.63;;;13.11;43.61
25238;BME280;13185;50.872;5.306;2023-04-26T11:37:50;101540.28;;;13.25;44.07
25238;BME280;13185;50.872;5.306;2023-04-26T11:40:17;101537.63;;;13.38;43.79
25238;BME280;13185;50.872;5.306;2023-04-26T11:42:43;101539.63;;;13.49;44.11
25238;BME280;13185;50.872;5.306;2023-04-26T11:45:10;101531.84;;;13.44;43.28
25238;BME280;13185;50.872;5.306;2023-04-26T11:47:35;101531.66;;;13.33;43.45
25238;BME280;13185;50.872;5.306;2023-04-26T11:50:01;101544.38;;;13.31;43.20
25238;BME280;13185;50.872;5.306;2023-04-26T11:52:28;101531.06;;;13.42;43.98
25238;BME280;13185;50.872;5.306;2023-04-26T11:55:01;101531.75;;;13.46;43.51
25238;BME280;13185;50.872;5.306;2023-04-26T11:57:29;101529.50;;;13.52;43.28
25238;BME280;13185;50.872;5.306;2023-04-26T12:00:12;101536.16;;;13.47;44.04
25238;BME280;13185;50.872;5.306;2023-04-26T12:02:43;101528.22;;;13.58;43.80
25238;BME280;13185;50.872;5.306;2023-04-26T12:05:09;101523.63;;;13.73;44.17
25238;BME280;13185;50.872;5.306;2023-04-26T12:07:35;101509.88;;;13.90;43.84
25238;BME280;13185;50.872;5.306;2023-04-26T12:10:15;101513.91;;;13.97;43.68
25238;BME280;13185;50.872;5.306;2023-04-26T12:12:47;101512.81;;;14.12;44.09
25238;BME280;13185;50.872;5.306;2023-04-26T12:15:13;101509.03;;;14.15;42.53
25238;BME280;13185;50.872;5.306;2023-04-26T12:17:39;101513.03;;;13.97;41.94
25238;BME280;13185;50.872;5.306;2023-04-26T12:20:11;101513.56;;;13.89;42.58
25238;BME280;13185;50.872;5.306;2023-04-26T12:22:37;101514.44;;;14.02;43.46
25238;BME280;13185;50.872;5.306;2023-04-26T12:25:04;101509.69;;;14.06;41.06
25238;BME280;13185;50.872;5.306;2023-04-26T12:27:30;101512.47;;;14.04;42.05
25238;BME280;13185;50.872;5.306;2023-04-26T12:29:56;101521.13;;;14.09;41.87
25238;BME280;13185;50.872;5.306;2023-04-26T12:32:22;101525.34;;;14.26;42.58
25238;BME280;13185;50.872;5.306;2023-04-26T12:34:48;101515.88;;;14.33;41.71
25238;BME280;13185;50.872;5.306;2023-04-26T12:37:13;101521.66;;;14.27;41.40
25238;BME280;13185;50.872;5.306;2023-04-26T12:39:39;101525.56;;;14.23;41.47
25238;BME280;13185;50.872;5.306;2023-04-26T12:42:04;101527.72;;;14.18;41.25
25238;BME280;13185;50.872;5.306;2023-04-26T12:44:30;101529.13;;;14.11;41.68
25238;BME280;13185;50.872;5.306;2023-04-26T12:46:56;101525.91;;;14.19;41.96
25238;BME280;13185;50.872;5.306;2023-04-26T12:49:22;101529.25;;;14.22;40.96
25238;BME280;13185;50.872;5.306;2023-04-26T12:51:47;101526.22;;;14.27;41.49
25238;BME280;13185;50.872;5.306;2023-04-26T12:54:13;101523.19;;;14.19;40.63
25238;BME280;13185;50.872;5.306;2023-04-26T12:56:38;101522.88;;;14.10;40.85
25238;BME280;13185;50.872;5.306;2023-04-26T12:59:08;101516.66;;;13.96;40.62
25238;BME280;13185;50.872;5.306;2023-04-26T13:01:33;101522.28;;;13.93;40.13
25238;BME280;13185;50.872;5.306;2023-04-26T13:03:59;101520.03;;;13.99;39.66
25238;BME280;13185;50.872;5.306;2023-04-26T13:06:25;101525.66;;;14.09;39.35
25238;BME280;13185;50.872;5.306;2023-04-26T13:08:52;101515.53;;;14.25;40.32
25238;BME280;13185;50.872;5.306;2023-04-26T13:11:18;101513.59;;;14.27;38.97
25238;BME280;13185;50.872;5.306;2023-04-26T13:13:43;101515.41;;;14.27;40.33
25238;BME280;13185;50.872;5.306;2023-04-26T13:16:09;101510.91;;;14.40;38.37
25238;BME280;13185;50.872;5.306;2023-04-26T13:18:35;101514.84;;;14.49;38.88